createdAt,value
2023-03-17T00:01:59.265Z,100531.94
2023-03-17T00:04:28.917Z,100538.91
2023-03-17T00:06:57.872Z,100529.22
2023-03-17T00:09:26.377Z,100517.75
2023-03-17T00:11:54.744Z,100526.59
2023-03-17T00:14:23.050Z,100527.47
2023-03-17T00:16:53.285Z,100518.72
2023-03-17T00:19:29.955Z,100455.66
2023-03-17T00:21:59.168Z,100520.53
2023-03-17T00:24:27.564Z,100514.31
2023-03-17T00:26:55.919Z,100526.66
2023-03-17T00:29:25.503Z,100553.16
2023-03-17T00:31:54.574Z,100534.53
2023-03-17T00:34:25.357Z,100532.75
2023-03-17T00:36:53.748Z,100524.00
2023-03-17T00:39:25.371Z,100522.97
2023-03-17T00:41:55.858Z,100509.66
2023-03-17T00:44:24.214Z,100501.81
2023-03-17T00:46:52.687Z,100510.59
2023-03-17T00:49:25.752Z,100515.09
2023-03-17T00:51:54.326Z,100510.63
2023-03-17T00:54:23.569Z,100508.81
2023-03-17T00:56:53.105Z,100401.06
2023-03-17T00:59:27.835Z,100529.03
2023-03-17T01:01:56.961Z,100528.06
2023-03-17T01:04:26.844Z,100525.34
2023-03-17T01:06:55.626Z,100528.06
2023-03-17T01:09:28.282Z,100517.41
2023-03-17T01:11:56.942Z,100523.56
2023-03-17T01:14:25.797Z,100516.56
2023-03-17T01:16:55.557Z,100508.69
2023-03-17T01:19:24.264Z,100428.97
2023-03-17T01:21:53.857Z,100510.25
2023-03-17T01:24:22.294Z,100501.53
2023-03-17T01:26:50.917Z,100501.59
2023-03-17T01:29:19.265Z,100498.91
2023-03-17T01:31:47.694Z,100495.28
2023-03-17T01:34:16.505Z,100493.84
2023-03-17T01:36:44.983Z,100484.13
2023-03-17T01:48:29.150Z,100479.94
2023-03-17T01:50:59.140Z,100481.69
2023-03-17T01:53:28.276Z,100382.81
2023-03-17T01:55:58.706Z,100473.75
2023-03-17T01:58:28.049Z,100323.03
2023-03-17T02:00:56.729Z,100470.13
2023-03-17T02:03:28.098Z,100381.00
2023-03-17T02:05:57.960Z,100475.38
2023-03-17T02:08:26.304Z,100462.06
2023-03-17T02:10:57.324Z,100464.53
2023-03-17T02:13:25.647Z,100465.34
2023-03-17T02:15:57.048Z,100417.94
2023-03-17T02:18:27.154Z,100460.78
2023-03-17T02:21:33.306Z,100459.81
2023-03-17T02:24:05.351Z,100452.81
2023-03-17T02:26:36.388Z,100467.03
2023-03-17T02:29:06.549Z,100464.41
2023-03-17T02:31:35.912Z,100458.22
2023-03-17T02:34:04.465Z,100465.34
2023-03-17T02:36:34.741Z,100467.81
2023-03-17T02:39:03.081Z,100453.88
2023-03-17T02:41:32.096Z,100471.41
2023-03-17T02:44:01.463Z,100341.84
2023-03-17T02:46:29.840Z,100455.63
2023-03-17T02:49:02.103Z,100462.69
2023-03-17T02:51:30.965Z,100460.13
2023-03-17T02:54:01.015Z,100461.84
2023-03-17T02:56:29.350Z,100455.72
2023-03-17T02:58:57.683Z,100452.16
2023-03-17T03:01:26.876Z,100454.81
2023-03-17T03:03:55.222Z,100455.69
2023-03-17T03:06:24.780Z,100453.88
2023-03-17T03:08:53.848Z,100477.72
2023-03-17T03:11:23.504Z,100479.41
2023-03-17T03:13:51.950Z,100477.75
2023-03-17T03:16:20.891Z,100474.19
2023-03-17T03:18:49.247Z,100458.22
2023-03-17T03:21:17.550Z,100465.16
2023-03-17T03:23:45.917Z,100464.91
2023-03-17T03:26:14.421Z,100478.03
2023-03-17T03:28:44.108Z,100473.56
2023-03-17T03:31:13.846Z,100472.78
2023-03-17T03:33:42.642Z,100482.47
2023-03-17T03:36:11.531Z,100476.41
2023-03-17T03:38:39.977Z,100484.25
2023-03-17T03:41:08.440Z,100482.56
2023-03-17T03:43:37.245Z,100491.44
2023-03-17T03:46:07.199Z,100510.78
2023-03-17T03:48:35.736Z,100496.47
2023-03-17T03:51:04.824Z,100495.66
2023-03-17T03:53:33.299Z,100394.25
2023-03-17T03:56:02.011Z,100500.06
2023-03-17T03:58:30.496Z,100502.66
2023-03-17T04:00:58.800Z,100486.75
2023-03-17T04:03:28.545Z,100493.88
2023-03-17T04:05:56.885Z,100487.66
2023-03-17T04:08:25.636Z,100480.47
2023-03-17T04:10:54.058Z,100484.91
2023-03-17T04:13:22.949Z,100456.09
2023-03-17T04:15:51.737Z,100501.47
2023-03-17T04:18:20.194Z,100500.56
2023-03-17T04:20:50.007Z,100490.72
2023-03-17T04:23:18.996Z,100481.78
2023-03-17T04:25:47.588Z,100487.81
2023-03-17T04:28:15.894Z,100360.94
2023-03-17T04:30:44.176Z,100383.81
2023-03-17T04:33:12.719Z,100487.59
2023-03-17T04:35:41.519Z,100484.91
2023-03-17T04:38:14.099Z,100495.28
2023-03-17T04:40:42.442Z,100467.22
2023-03-17T04:43:10.840Z,100486.34
2023-03-17T04:45:39.656Z,100480.13
2023-03-17T04:48:08.040Z,100495.13
2023-03-17T04:50:36.477Z,100492.53
2023-03-17T04:53:04.858Z,100487.06
2023-03-17T04:55:34.601Z,100458.88
2023-03-17T04:58:03.052Z,100463.31
2023-03-17T05:00:33.778Z,100434.34
2023-03-17T05:03:01.906Z,100465.56
2023-03-17T05:05:30.157Z,100474.56
2023-03-17T05:07:58.548Z,100468.44
2023-03-17T05:10:26.909Z,100440.06
2023-03-17T05:12:56.703Z,100424.69
2023-03-17T05:15:25.055Z,100429.81
2023-03-17T05:17:53.399Z,100427.00
2023-03-17T05:20:21.652Z,100408.53
2023-03-17T05:22:50.032Z,100457.09
2023-03-17T05:25:18.451Z,100483.63
2023-03-17T05:27:46.767Z,100483.59
2023-03-17T05:30:17.315Z,100471.31
2023-03-17T05:32:45.706Z,100474.75
2023-03-17T05:35:14.425Z,100456.84
2023-03-17T05:37:42.685Z,100449.25
2023-03-17T05:40:13.813Z,100430.03
2023-03-17T05:42:42.657Z,100442.72
2023-03-17T05:45:13.100Z,100464.63
2023-03-17T05:47:43.638Z,100475.25
2023-03-17T05:50:14.016Z,100470.63
2023-03-17T05:52:42.376Z,100453.03
2023-03-17T05:55:11.684Z,100452.19
2023-03-17T05:57:40.041Z,100446.03
2023-03-17T06:00:12.645Z,100420.56
2023-03-17T06:02:43.227Z,100418.91
2023-03-17T06:05:11.759Z,100433.06
2023-03-17T06:07:51.956Z,100453.34
2023-03-17T06:10:23.252Z,100458.06
2023-03-17T06:12:51.573Z,100449.47
2023-03-17T06:15:20.097Z,100459.97
2023-03-17T06:17:50.114Z,100475.81
2023-03-17T06:20:19.089Z,100466.94
2023-03-17T06:23:02.750Z,100469.50
2023-03-17T06:25:33.052Z,100456.59
2023-03-17T06:28:03.813Z,100456.75
2023-03-17T06:30:33.171Z,100441.09
2023-03-17T06:33:03.441Z,100439.31
2023-03-17T06:35:33.464Z,100460.28
2023-03-17T06:38:02.384Z,100463.63
2023-03-17T06:40:32.105Z,100458.25
2023-03-17T06:43:01.218Z,100463.59
2023-03-17T06:45:30.194Z,100468.59
2023-03-17T06:47:58.788Z,100465.75
2023-03-17T06:50:28.661Z,100482.19
2023-03-17T06:52:57.111Z,100476.53
2023-03-17T06:55:25.848Z,100485.44
2023-03-17T06:57:54.330Z,100382.41
2023-03-17T07:00:23.833Z,100478.50
2023-03-17T07:02:52.643Z,100484.34
2023-03-17T07:05:20.965Z,100484.59
2023-03-17T07:07:51.067Z,100447.03
2023-03-17T07:10:20.100Z,100455.03
2023-03-17T07:12:49.002Z,100381.19
2023-03-17T07:15:18.833Z,100471.41
2023-03-17T07:17:47.938Z,100472.94
2023-03-17T07:20:16.578Z,100460.84
2023-03-17T07:22:49.066Z,100473.34
2023-03-17T07:25:20.089Z,100486.59
2023-03-17T07:27:52.593Z,100501.22
2023-03-17T07:30:21.763Z,100515.16
2023-03-17T07:32:50.429Z,100493.72
2023-03-17T07:35:19.374Z,100491.47
2023-03-17T07:37:48.780Z,100490.44
2023-03-17T07:40:18.533Z,100496.28
2023-03-17T07:42:48.399Z,100495.34
2023-03-17T07:45:17.162Z,100493.44
2023-03-17T07:47:46.509Z,100490.75
2023-03-17T07:50:15.367Z,100478.59
2023-03-17T07:52:43.726Z,100497.63
2023-03-17T07:55:12.569Z,100486.84
2023-03-17T07:57:41.599Z,100477.88
2023-03-17T08:00:14.019Z,100495.81
2023-03-17T08:02:42.542Z,100489.91
2023-03-17T08:05:11.916Z,100496.84
2023-03-17T08:07:40.584Z,100490.75
2023-03-17T08:10:12.939Z,100474.59
2023-03-17T08:12:42.668Z,100489.78
2023-03-17T08:15:13.177Z,100494.25
2023-03-17T08:17:41.969Z,100496.44
2023-03-17T08:20:12.645Z,100499.19
2023-03-17T08:22:40.999Z,100510.84
2023-03-17T08:25:11.687Z,100503.00
2023-03-17T08:27:40.728Z,100510.06
2023-03-17T08:30:12.913Z,100501.56
2023-03-17T08:32:41.494Z,100514.81
2023-03-17T08:35:15.976Z,100521.78
2023-03-17T08:37:44.850Z,100520.94
2023-03-17T08:40:17.435Z,100521.06
2023-03-17T08:42:46.155Z,100516.41
2023-03-17T08:45:18.348Z,100521.84
2023-03-17T08:47:47.678Z,100520.16
2023-03-17T08:50:20.099Z,100527.16
2023-03-17T08:52:49.731Z,100528.44
2023-03-17T08:55:19.581Z,100532.47
2023-03-17T08:57:48.721Z,100509.56
2023-03-17T09:00:21.350Z,100531.63
2023-03-17T09:02:50.403Z,100547.03
2023-03-17T09:05:19.535Z,100563.16
2023-03-17T09:07:49.079Z,100548.97
2023-03-17T09:10:22.515Z,100563.25
2023-03-17T09:12:51.689Z,100471.31
2023-03-17T09:15:22.026Z,100565.56
2023-03-17T09:17:50.938Z,100563.47
2023-03-17T09:20:20.510Z,100563.91
2023-03-17T09:22:49.416Z,100546.56
2023-03-17T09:25:18.681Z,100563.72
2023-03-17T09:27:47.206Z,100577.19
2023-03-17T09:30:16.506Z,100553.00
2023-03-17T09:32:46.603Z,100497.41
2023-03-17T09:35:14.960Z,100569.66
2023-03-17T09:37:43.264Z,100579.00
2023-03-17T09:40:18.155Z,100582.19
2023-03-17T09:42:59.245Z,100588.13
2023-03-17T09:45:33.815Z,100568.75
2023-03-17T09:48:23.014Z,100578.25
2023-03-17T09:50:58.951Z,100596.28
2023-03-17T09:53:34.100Z,100589.38
2023-03-17T09:56:09.215Z,100612.31
2023-03-17T09:58:38.834Z,100608.41
2023-03-17T10:01:09.919Z,100616.34
2023-03-17T10:03:39.695Z,100613.75
2023-03-17T10:06:29.312Z,100608.25
2023-03-17T10:09:04.354Z,100601.13
2023-03-17T10:11:41.180Z,100608.56
2023-03-17T10:14:28.645Z,100600.78
2023-03-17T10:17:02.960Z,100600.78
2023-03-17T10:19:36.892Z,100592.31
2023-03-17T10:22:16.078Z,100598.34
2023-03-17T10:24:51.554Z,100606.13
2023-03-17T10:27:20.496Z,100593.59
2023-03-17T10:29:49.199Z,100597.31
2023-03-17T10:32:17.652Z,100592.75
2023-03-17T10:34:49.996Z,100597.31
2023-03-17T10:37:21.354Z,100579.06
2023-03-17T10:39:52.661Z,100571.25
2023-03-17T10:42:25.565Z,100586.75
2023-03-17T10:44:57.392Z,100613.47
2023-03-17T10:47:32.650Z,100584.78
2023-03-17T10:50:20.334Z,100569.34
2023-03-17T10:52:54.204Z,100576.06
2023-03-17T10:55:29.376Z,100577.91
2023-03-17T10:58:05.102Z,100579.00
2023-03-17T11:00:37.311Z,100578.88
2023-03-17T11:03:16.298Z,100583.78
2023-03-17T11:05:58.430Z,100574.03
2023-03-17T11:08:32.814Z,100560.03
2023-03-17T11:11:01.205Z,100564.16
2023-03-17T11:13:33.078Z,100567.84
2023-03-17T11:16:18.625Z,100549.88
2023-03-17T11:18:49.373Z,100540.44
2023-03-17T11:21:21.186Z,100544.34
2023-03-17T11:23:53.885Z,100538.75
2023-03-17T11:26:49.701Z,100540.28
2023-03-17T11:29:43.558Z,100515.81
2023-03-17T11:32:28.426Z,100504.38
2023-03-17T11:35:23.171Z,100478.00
2023-03-17T11:38:24.521Z,100467.47
2023-03-17T11:41:17.670Z,100480.81
2023-03-17T11:44:02.993Z,100492.34
2023-03-17T11:46:35.792Z,100509.03
2023-03-17T11:49:14.571Z,100497.09
2023-03-17T11:51:56.645Z,100505.75
2023-03-17T11:54:40.252Z,100516.66
2023-03-17T11:57:15.450Z,100518.09
2023-03-17T11:59:53.138Z,100511.88
2023-03-17T12:02:29.939Z,100522.34
2023-03-17T12:05:05.053Z,100530.53
2023-03-17T12:07:38.743Z,100535.44
2023-03-17T12:10:20.479Z,100551.97
2023-03-17T12:12:54.587Z,100553.88
2023-03-17T12:15:30.619Z,100477.03
2023-03-17T12:18:04.181Z,100553.56
2023-03-17T12:20:39.424Z,100553.88
2023-03-17T12:23:18.972Z,100485.84
2023-03-17T12:26:00.136Z,100548.44
2023-03-17T12:28:32.958Z,100572.34
2023-03-17T12:31:07.189Z,100578.84
2023-03-17T12:33:43.858Z,100552.03
2023-03-17T12:36:17.111Z,100452.44
2023-03-17T12:38:48.455Z,100534.03
2023-03-17T12:41:35.105Z,100540.97
2023-03-17T12:44:11.331Z,100556.00
2023-03-17T12:46:54.472Z,100565.88
2023-03-17T12:50:08.249Z,100559.13
2023-03-17T12:53:15.553Z,100544.69
2023-03-17T12:55:48.078Z,100540.16
2023-03-17T12:58:32.329Z,100549.91
2023-03-17T13:01:18.501Z,100556.19
2023-03-17T13:03:59.890Z,100548.69
2023-03-17T13:06:39.841Z,100559.41
2023-03-17T13:09:44.395Z,100554.22
2023-03-17T13:13:25.454Z,100555.78
2023-03-17T13:16:04.526Z,100560.00
2023-03-17T13:19:09.401Z,100529.94
2023-03-17T13:21:38.974Z,100518.78
2023-03-17T13:24:46.850Z,100515.34
2023-03-17T13:27:17.585Z,100447.13
2023-03-17T13:29:48.708Z,100511.66
2023-03-17T13:32:39.848Z,100509.56
2023-03-17T13:35:38.633Z,100478.25
2023-03-17T13:38:52.542Z,100503.19
2023-03-17T13:41:46.361Z,100500.56
2023-03-17T13:44:38.620Z,100502.78
2023-03-17T13:47:27.291Z,100475.41
2023-03-17T13:50:03.183Z,100490.81
2023-03-17T13:52:34.582Z,100492.19
2023-03-17T13:55:29.471Z,100489.44
2023-03-17T13:58:27.432Z,100471.22
2023-03-17T14:01:05.395Z,100476.41
2023-03-17T14:03:43.296Z,100479.59
2023-03-17T14:06:14.875Z,100474.84
2023-03-17T14:08:49.733Z,100473.28
2023-03-17T14:11:25.536Z,100473.31
2023-03-17T14:14:15.185Z,100467.41
2023-03-17T14:16:57.037Z,100395.09
2023-03-17T14:19:28.332Z,100445.63
2023-03-17T14:22:04.238Z,100430.47
2023-03-17T14:24:35.267Z,100386.63
2023-03-17T14:27:08.889Z,100437.16
2023-03-17T14:29:38.532Z,100432.78
2023-03-17T14:32:13.711Z,100437.31
2023-03-17T14:34:44.359Z,100437.53
2023-03-17T14:37:14.112Z,100444.03
2023-03-17T14:39:47.183Z,100416.03
2023-03-17T14:42:15.908Z,100441.69
2023-03-17T14:44:45.459Z,100443.94
2023-03-17T14:47:20.457Z,100333.84
2023-03-17T14:49:49.899Z,100438.59
2023-03-17T14:52:22.459Z,100388.59
2023-03-17T14:54:53.930Z,100431.44
2023-03-17T14:57:29.099Z,100438.03
2023-03-17T15:00:00.084Z,100428.91
2023-03-17T15:02:35.996Z,100443.22
2023-03-17T15:05:19.609Z,100432.91
2023-03-17T15:07:49.417Z,100425.94
2023-03-17T15:10:24.550Z,100425.13
2023-03-17T15:13:02.286Z,100443.06
2023-03-17T15:15:34.617Z,100432.25
2023-03-17T15:18:11.911Z,100441.03
2023-03-17T15:20:43.398Z,100440.97
2023-03-17T15:23:22.138Z,100442.50
2023-03-17T15:25:55.952Z,100432.44
2023-03-17T15:28:33.242Z,100398.19
2023-03-17T15:31:14.524Z,100390.50
2023-03-17T15:33:43.875Z,100428.09
2023-03-17T15:36:31.218Z,100421.63
2023-03-17T15:39:03.420Z,100413.03
2023-03-17T15:41:32.087Z,100422.13
2023-03-17T15:44:00.691Z,100429.22
2023-03-17T15:46:32.580Z,100426.41
2023-03-17T15:49:01.489Z,100432.41
2023-03-17T15:51:29.962Z,100433.00
2023-03-17T15:53:58.376Z,100427.53
2023-03-17T15:56:28.083Z,100438.59
2023-03-17T15:58:56.643Z,100433.56
2023-03-17T16:01:27.774Z,100435.09
2023-03-17T16:03:56.483Z,100436.03
2023-03-17T16:06:25.928Z,100432.44
2023-03-17T16:08:54.333Z,100436.16
2023-03-17T16:11:28.105Z,100438.22
2023-03-17T16:13:59.839Z,100438.50
2023-03-17T16:16:36.849Z,100446.53
2023-03-17T16:19:07.014Z,100449.88
2023-03-17T16:21:35.633Z,100441.94
2023-03-17T16:24:06.686Z,100441.28
2023-03-17T16:26:35.150Z,100429.66
2023-03-17T16:29:13.744Z,100425.22
2023-03-17T16:31:42.216Z,100436.41
2023-03-17T16:34:18.581Z,100434.13
2023-03-17T16:36:47.064Z,100443.59
2023-03-17T16:39:19.055Z,100437.19
2023-03-17T16:41:48.649Z,100441.03
2023-03-17T16:44:22.117Z,100447.09
2023-03-17T16:46:50.661Z,100440.84
2023-03-17T16:49:22.902Z,100437.19
2023-03-17T16:51:51.378Z,100438.78
2023-03-17T16:54:19.782Z,100445.22
2023-03-17T16:56:48.367Z,100442.47
2023-03-17T16:59:22.152Z,100443.19
2023-03-17T17:01:51.106Z,100436.97
2023-03-17T17:04:19.445Z,100438.72
2023-03-17T17:06:47.899Z,100444.94
2023-03-17T17:09:16.195Z,100445.88
2023-03-17T17:11:44.679Z,100438.91
2023-03-17T17:14:13.104Z,100333.56
2023-03-17T17:16:43.273Z,100432.03
2023-03-17T17:19:17.574Z,100427.34
2023-03-17T17:21:46.387Z,100427.72
2023-03-17T17:24:16.578Z,100450.31
2023-03-17T17:26:44.996Z,100448.44
2023-03-17T17:29:13.369Z,100452.47
2023-03-17T17:31:43.254Z,100461.75
2023-03-17T17:34:11.670Z,100358.75
2023-03-17T17:36:40.202Z,100458.94
2023-03-17T17:39:08.589Z,100451.56
2023-03-17T17:41:37.034Z,100456.41
2023-03-17T17:44:06.112Z,100452.16
2023-03-17T17:46:35.136Z,100465.78
2023-03-17T17:49:05.574Z,100463.09
2023-03-17T17:51:34.022Z,100465.38
2023-03-17T17:54:02.520Z,100459.63
2023-03-17T17:56:32.652Z,100465.47
2023-03-17T17:59:01.068Z,100466.59
2023-03-17T18:01:29.445Z,100463.19
2023-03-17T18:03:57.905Z,100458.16
2023-03-17T18:06:27.781Z,100457.78
2023-03-17T18:08:56.628Z,100458.72
2023-03-17T18:11:24.957Z,100472.31
2023-03-17T18:13:53.322Z,100473.88
2023-03-17T18:16:22.387Z,100400.00
2023-03-17T18:18:51.044Z,100466.47
2023-03-17T18:21:19.472Z,100473.59
2023-03-17T18:23:50.055Z,100436.25
2023-03-17T18:26:20.242Z,100464.53
2023-03-17T18:28:49.627Z,100472.88
2023-03-17T18:31:23.239Z,100475.69
2023-03-17T18:33:57.209Z,100483.56
2023-03-17T18:36:27.376Z,100476.50
2023-03-17T18:38:57.927Z,100486.88
2023-03-17T18:41:28.171Z,100481.06
2023-03-17T18:43:56.496Z,100494.44
2023-03-17T18:46:25.007Z,100496.13
2023-03-17T18:48:53.454Z,100494.28
2023-03-17T18:51:21.819Z,100494.06
2023-03-17T18:53:50.216Z,100500.25
2023-03-17T18:56:21.603Z,100497.50
2023-03-17T18:58:50.119Z,100490.34
2023-03-17T19:01:18.498Z,100476.34
2023-03-17T19:03:47.081Z,100484.06
2023-03-17T19:06:18.758Z,100476.16
2023-03-17T19:08:48.529Z,100469.22
2023-03-17T19:11:21.789Z,100488.41
2023-03-17T19:13:51.033Z,100479.59
2023-03-17T19:16:19.822Z,100484.84
2023-03-17T19:18:48.457Z,100488.34
2023-03-17T19:21:16.875Z,100502.78
2023-03-17T19:23:45.696Z,100504.91
2023-03-17T19:26:14.183Z,100503.34
2023-03-17T19:28:44.087Z,100506.25
2023-03-17T19:31:13.434Z,100494.63
2023-03-17T19:33:41.828Z,100502.81
2023-03-17T19:36:13.360Z,100391.22
2023-03-17T19:38:42.295Z,100488.25
2023-03-17T19:41:10.838Z,100498.97
2023-03-17T19:43:41.610Z,100509.72
2023-03-17T19:46:13.144Z,100509.56
2023-03-17T19:48:42.028Z,100503.41
2023-03-17T19:51:10.713Z,100491.75
2023-03-17T19:53:39.284Z,100494.72
2023-03-17T19:56:08.666Z,100499.38
2023-03-17T19:58:37.090Z,100431.56
2023-03-17T20:01:07.425Z,100495.00
2023-03-17T20:03:42.304Z,100503.09
2023-03-17T20:06:10.879Z,100509.31
2023-03-17T20:08:39.938Z,100499.81
2023-03-17T20:11:08.508Z,100509.63
2023-03-17T20:13:38.475Z,100516.00
2023-03-17T20:16:08.498Z,100506.38
2023-03-17T20:18:38.310Z,100520.88
2023-03-17T20:21:07.833Z,100513.19
2023-03-17T20:23:37.793Z,100520.38
2023-03-17T20:26:06.942Z,100523.88
2023-03-17T20:28:35.693Z,100529.22
2023-03-17T20:31:04.945Z,100496.09
2023-03-17T20:33:34.414Z,100532.22
2023-03-17T20:36:04.764Z,100535.03
2023-03-17T20:38:36.901Z,100539.53
2023-03-17T20:41:11.263Z,100554.91
2023-03-17T20:43:40.303Z,100555.09
2023-03-17T20:46:12.614Z,100552.44
2023-03-17T20:48:41.682Z,100556.94
2023-03-17T20:51:16.488Z,100549.06
2023-03-17T20:53:46.266Z,100564.75
2023-03-17T20:56:16.660Z,100563.88
2023-03-17T20:58:46.949Z,100564.97
2023-03-17T21:01:16.985Z,100566.09
2023-03-17T21:03:47.586Z,100583.19
2023-03-17T21:06:18.336Z,100575.00
2023-03-17T21:08:47.135Z,100571.75
2023-03-17T21:11:19.839Z,100569.97
2023-03-17T21:13:48.466Z,100572.66
2023-03-17T21:16:20.367Z,100567.38
2023-03-17T21:18:49.557Z,100561.50
2023-03-17T21:21:20.383Z,100578.66
2023-03-17T21:23:49.157Z,100569.84
2023-03-17T21:26:18.453Z,100573.50
2023-03-17T21:28:47.648Z,100570.91
2023-03-17T21:31:17.422Z,100557.84
2023-03-17T21:33:50.439Z,100570.13
2023-03-17T21:36:21.256Z,100567.69
2023-03-17T21:38:49.527Z,100574.91
2023-03-17T21:41:23.751Z,100568.00
2023-03-17T21:43:52.147Z,100581.28
2023-03-17T21:46:20.747Z,100586.03
2023-03-17T21:48:49.680Z,100582.75
2023-03-17T21:51:20.019Z,100578.38
2023-03-17T21:53:49.069Z,100444.88
2023-03-17T21:56:18.707Z,100582.97
2023-03-17T21:58:48.940Z,100582.09
2023-03-17T22:01:18.154Z,100574.25
2023-03-17T22:03:46.648Z,100584.88
2023-03-17T22:06:16.355Z,100576.88
2023-03-17T22:08:47.998Z,100570.19
2023-03-17T22:11:19.462Z,100568.44
2023-03-17T22:13:48.223Z,100590.34
2023-03-17T22:16:18.416Z,100588.66
2023-03-17T22:18:47.504Z,100586.09
2023-03-17T22:21:16.019Z,100589.66
2023-03-17T22:23:46.382Z,100595.94
2023-03-17T22:26:18.018Z,100599.59
2023-03-17T22:28:48.324Z,100603.31
2023-03-17T22:31:21.334Z,100598.81
2023-03-17T22:33:52.620Z,100606.19
2023-03-17T22:36:21.031Z,100611.66
2023-03-17T22:38:51.465Z,100622.34
2023-03-17T22:41:22.591Z,100605.47
2023-03-17T22:43:52.158Z,100546.88
2023-03-17T22:46:21.457Z,100605.47
2023-03-17T22:48:50.513Z,100606.41
2023-03-17T22:51:23.389Z,100568.75
2023-03-17T22:53:53.342Z,100519.78
2023-03-17T22:56:22.261Z,100594.97
2023-03-17T22:58:51.207Z,100587.25
2023-03-17T23:01:22.304Z,100607.44
2023-03-17T23:03:51.300Z,100595.13
2023-03-17T23:06:20.647Z,100595.22
2023-03-17T23:08:49.530Z,100600.56
2023-03-17T23:11:23.106Z,100599.88
2023-03-17T23:13:52.809Z,100595.59
2023-03-17T23:16:22.196Z,100592.06
2023-03-17T23:18:51.570Z,100571.78
2023-03-17T23:21:24.819Z,100584.88
2023-03-17T23:23:53.625Z,100584.16
2023-03-17T23:26:23.998Z,100590.41
2023-03-17T23:28:52.665Z,100481.97
2023-03-17T23:31:22.506Z,100583.44
2023-03-17T23:33:52.665Z,100598.53
2023-03-17T23:36:21.410Z,100603.88
2023-03-17T23:38:50.340Z,100606.56
2023-03-17T23:41:18.891Z,100598.59
2023-03-17T23:43:49.155Z,100600.50
2023-03-17T23:46:17.799Z,100608.59
2023-03-17T23:48:46.562Z,100587.66
2023-03-17T23:51:15.216Z,100589.50
2023-03-17T23:53:43.745Z,100563.38
2023-03-17T23:56:13.092Z,100595.78
2023-03-17T23:58:43.225Z,100600.34
